Tyler, TX

4:26 AM CDT on August 19, 2017 (GMT -0500)
Tyler Pounds | | Change Station
Active Advisory: Flood Warning

Elev 541 ft 32.35 °N, 95.40 °W | Updated 33 minutes ago

Clear
Clear
79 °F
Feels Like 79 °F
N
7
Wind Variable Wind from South

Today
High -- | Low -- °F
--% Chance of Precip.
Yesterday
High -- | Low -- °F
Precip. -- in
Pressure 29.97 in
Visibility 10.0 miles
Clouds Clear
Dew Point 76 °F
Humidity 90%
Rainfall 0.00 in
Snow Depth Not available.
6:48 AM 8:01 PM
Waning Crescent, 8% visible
METAR KTYR 190853Z AUTO 19006KT 10SM CLR 26/24 A2999 RMK AO2 SLP147 T02610244 55003
Pressure 29.97 in
Visibility 10.0 miles
Clouds Clear
Dew Point 76 °F
Humidity 90%
Rainfall 0.00 in
Snow Depth Not available.
6:48 AM 8:01 PM
Waning Crescent, 8% visible
METAR KTYR 190853Z AUTO 19006KT 10SM CLR 26/24 A2999 RMK AO2 SLP147 T02610244 55003

Get Your Daily Forecast Email!

Thanks for signing up!

Be on the lookout for a verification email in your inbox.

You'll start receiving severe weather alerts in your inbox..

×

10-Day Weather Forecast

Almanac

Astronomy

Aug. 19, 2017 Rise Set
Actual Time
Civil Twilight
Nautical Twilight
Astronomical Twilight
Moon
Length of Visible Light
Length of Day
Tomorrow will be .
, % of the Moon is Illuminated

Today's Extremes

State Highs State Lows

Community

WunderPhotos

Category 6

Welcome to Category 6. This is the collective home for Weather Underground's featured writeups by Dr. Jeff Masters (right), Bob Henson (left), Chris Burt, and other regular contributors.

Nearby

Air Quality

  Air Quality AQ Index Pollutant
Not available.

Snow Depth

Station Depth Elevation

Earthquake Activity

City Distance Mag. Time & Date
Minimum magnitude displayed is 2.5.

Coastal Water Temperatures

Place Temperature

Stations

Nearby Weather Stations

Station Location Temp. Windchill Dew Point Humidity Wind Precip. Elev Updated Type
                   

Watches & Warnings

Flood Warning
Issued: 9:52 AM CDT Aug. 18, 2017 – National Weather Service

... The Flood Warning extended until Sunday afternoon... the Flood
Warning continues for
the Sabine River near Mineola, Texas.
* Until Sunday afternoon... or until the warning is cancelled.
* At 915 am Friday the stage was 15.7 feet.
* Minor flooding is occurring and minor flooding is forecast.
* Flood stage is 14 feet.
* Forecast... the river will continue to fall to below flood stage by
Saturday evening. Also the Sabine River crested at 16 feet during
Thursday evening.
* Impact... at 16.0 feet... expect flooding of low river bottoms with
secondary roadways along with picnic and recreational areas
becoming inundated as well. Ranchers should move cattle and
equipment to higher ground.


Lat... Lon 3278 9574 3263 9535 3257 9535 3259 9550 3273 9574


Viii.